Terminal Aerodrome Forecast
Issued by NWS Sterling, VA

Current Version | Previous Version | Text Only | Print | Product List | Glossary Off
Versions: 1 2 3 4 5 6 7 8 9 10 11 12 13

000
FTUS41 KLWX 181100
TAFMRB
TAF
KMRB 181135Z 1812/1912 27010KT P6SM BKN050 BKN080
     FM181400 28014G23KT P6SM BKN050
     FM182300 30010G17KT P6SM SCT040 BKN060=

USA.gov is the U.S. government's official web portal to all federal, state and local government web resources and services.